sensor_id;sensor_type;location;lat;lon;timestamp;P1;durP1;ratioP1;P2;durP2;ratioP2
51332;SDS011;37417;48.118;11.734;2023-05-09T00:02:33;4.80;;;3.67;;
51332;SDS011;37417;48.118;11.734;2023-05-09T00:05:20;3.10;;;2.15;;
51332;SDS011;37417;48.118;11.734;2023-05-09T00:08:06;4.05;;;3.00;;
51332;SDS011;37417;48.118;11.734;2023-05-09T00:10:51;3.22;;;2.92;;
51332;SDS011;37417;48.118;11.734;2023-05-09T00:13:37;7.68;;;3.17;;
51332;SDS011;37417;48.118;11.734;2023-05-09T00:16:23;5.38;;;3.10;;
51332;SDS011;37417;48.118;11.734;2023-05-09T00:19:09;2.92;;;2.63;;
51332;SDS011;37417;48.118;11.734;2023-05-09T00:21:55;1.88;;;1.67;;
51332;SDS011;37417;48.118;11.734;2023-05-09T00:24:41;2.20;;;1.98;;
51332;SDS011;37417;48.118;11.734;2023-05-09T00:27:26;5.28;;;2.45;;
51332;SDS011;37417;48.118;11.734;2023-05-09T00:30:14;4.45;;;2.65;;
51332;SDS011;37417;48.118;11.734;2023-05-09T00:33:00;6.70;;;3.92;;
51332;SDS011;37417;48.118;11.734;2023-05-09T00:35:46;3.90;;;3.00;;
51332;SDS011;37417;48.118;11.734;2023-05-09T00:38:31;2.83;;;2.05;;
51332;SDS011;37417;48.118;11.734;2023-05-09T00:41:17;3.60;;;3.30;;
51332;SDS011;37417;48.118;11.734;2023-05-09T00:44:03;6.00;;;3.38;;
51332;SDS011;37417;48.118;11.734;2023-05-09T00:46:48;3.92;;;3.53;;
51332;SDS011;37417;48.118;11.734;2023-05-09T00:49:34;3.75;;;2.72;;
51332;SDS011;37417;48.118;11.734;2023-05-09T00:52:20;2.50;;;2.22;;
51332;SDS011;37417;48.118;11.734;2023-05-09T00:55:07;3.70;;;2.80;;
51332;SDS011;37417;48.118;11.734;2023-05-09T00:57:54;5.28;;;2.72;;
51332;SDS011;37417;48.118;11.734;2023-05-09T01:00:39;3.85;;;2.97;;
51332;SDS011;37417;48.118;11.734;2023-05-09T01:03:26;3.83;;;2.35;;
51332;SDS011;37417;48.118;11.734;2023-05-09T01:06:13;3.63;;;2.03;;
51332;SDS011;37417;48.118;11.734;2023-05-09T01:09:15;4.45;;;3.65;;
51332;SDS011;37417;48.118;11.734;2023-05-09T01:12:26;4.30;;;2.47;;
51332;SDS011;37417;48.118;11.734;2023-05-09T01:18:29;3.30;;;3.00;;
51332;SDS011;37417;48.118;11.734;2023-05-09T01:21:27;4.03;;;2.92;;
51332;SDS011;37417;48.118;11.734;2023-05-09T01:27:27;3.33;;;2.92;;
51332;SDS011;37417;48.118;11.734;2023-05-09T01:30:24;4.78;;;2.97;;
51332;SDS011;37417;48.118;11.734;2023-05-09T01:33:12;3.45;;;2.60;;
51332;SDS011;37417;48.118;11.734;2023-05-09T01:36:03;3.03;;;2.70;;
51332;SDS011;37417;48.118;11.734;2023-05-09T01:38:52;4.80;;;2.63;;
51332;SDS011;37417;48.118;11.734;2023-05-09T01:41:39;4.57;;;3.22;;
51332;SDS011;37417;48.118;11.734;2023-05-09T01:44:24;2.67;;;2.35;;
51332;SDS011;37417;48.118;11.734;2023-05-09T01:47:15;2.70;;;2.08;;
51332;SDS011;37417;48.118;11.734;2023-05-09T01:50:03;5.13;;;4.00;;
51332;SDS011;37417;48.118;11.734;2023-05-09T01:52:51;4.15;;;3.35;;
51332;SDS011;37417;48.118;11.734;2023-05-09T01:55:39;2.92;;;2.55;;
51332;SDS011;37417;48.118;11.734;2023-05-09T01:58:26;4.20;;;2.95;;
51332;SDS011;37417;48.118;11.734;2023-05-09T02:01:12;5.47;;;2.53;;
51332;SDS011;37417;48.118;11.734;2023-05-09T02:03:59;1.65;;;1.55;;
51332;SDS011;37417;48.118;11.734;2023-05-09T02:06:45;5.18;;;3.38;;
51332;SDS011;37417;48.118;11.734;2023-05-09T02:09:35;6.47;;;3.65;;
51332;SDS011;37417;48.118;11.734;2023-05-09T02:12:22;2.45;;;2.13;;
51332;SDS011;37417;48.118;11.734;2023-05-09T02:15:08;5.75;;;2.95;;
51332;SDS011;37417;48.118;11.734;2023-05-09T02:17:54;3.13;;;2.83;;
51332;SDS011;37417;48.118;11.734;2023-05-09T02:20:40;3.58;;;2.22;;
51332;SDS011;37417;48.118;11.734;2023-05-09T02:23:25;5.20;;;2.97;;
51332;SDS011;37417;48.118;11.734;2023-05-09T02:26:12;3.17;;;2.60;;
51332;SDS011;37417;48.118;11.734;2023-05-09T02:28:58;4.72;;;2.08;;
51332;SDS011;37417;48.118;11.734;2023-05-09T02:31:46;3.80;;;2.13;;
51332;SDS011;37417;48.118;11.734;2023-05-09T02:34:35;4.53;;;2.75;;
51332;SDS011;37417;48.118;11.734;2023-05-09T02:37:21;5.63;;;2.33;;
51332;SDS011;37417;48.118;11.734;2023-05-09T02:40:08;5.55;;;2.50;;
51332;SDS011;37417;48.118;11.734;2023-05-09T02:42:55;2.03;;;1.77;;
51332;SDS011;37417;48.118;11.734;2023-05-09T02:45:41;2.88;;;2.67;;
51332;SDS011;37417;48.118;11.734;2023-05-09T02:48:28;4.45;;;3.22;;
51332;SDS011;37417;48.118;11.734;2023-05-09T02:51:14;4.18;;;3.10;;
51332;SDS011;37417;48.118;11.734;2023-05-09T02:54:00;5.30;;;2.88;;
51332;SDS011;37417;48.118;11.734;2023-05-09T02:56:46;5.05;;;3.00;;
51332;SDS011;37417;48.118;11.734;2023-05-09T02:59:31;6.47;;;3.13;;
51332;SDS011;37417;48.118;11.734;2023-05-09T03:02:17;3.33;;;2.92;;
51332;SDS011;37417;48.118;11.734;2023-05-09T03:05:03;4.05;;;2.75;;
51332;SDS011;37417;48.118;11.734;2023-05-09T03:07:49;3.70;;;2.95;;
51332;SDS011;37417;48.118;11.734;2023-05-09T03:10:35;2.00;;;1.90;;
51332;SDS011;37417;48.118;11.734;2023-05-09T03:13:21;10.48;;;3.08;;
51332;SDS011;37417;48.118;11.734;2023-05-09T03:16:06;2.35;;;2.13;;
51332;SDS011;37417;48.118;11.734;2023-05-09T03:18:52;1.95;;;1.80;;
51332;SDS011;37417;48.118;11.734;2023-05-09T03:21:38;3.65;;;2.78;;
51332;SDS011;37417;48.118;11.734;2023-05-09T03:24:25;4.45;;;2.78;;
51332;SDS011;37417;48.118;11.734;2023-05-09T03:27:12;4.22;;;1.63;;
51332;SDS011;37417;48.118;11.734;2023-05-09T03:29:58;1.55;;;1.42;;
51332;SDS011;37417;48.118;11.734;2023-05-09T03:32:43;2.20;;;2.08;;
51332;SDS011;37417;48.118;11.734;2023-05-09T03:35:29;2.35;;;1.98;;
51332;SDS011;37417;48.118;11.734;2023-05-09T03:38:15;4.10;;;3.63;;
51332;SDS011;37417;48.118;11.734;2023-05-09T03:41:00;1.92;;;1.83;;
51332;SDS011;37417;48.118;11.734;2023-05-09T03:43:46;3.13;;;2.15;;
51332;SDS011;37417;48.118;11.734;2023-05-09T03:46:31;2.47;;;2.03;;
51332;SDS011;37417;48.118;11.734;2023-05-09T03:49:17;2.75;;;2.30;;
51332;SDS011;37417;48.118;11.734;2023-05-09T03:52:03;1.70;;;1.60;;
51332;SDS011;37417;48.118;11.734;2023-05-09T03:54:48;3.90;;;2.50;;
51332;SDS011;37417;48.118;11.734;2023-05-09T03:57:34;5.30;;;2.15;;
51332;SDS011;37417;48.118;11.734;2023-05-09T04:00:20;3.53;;;2.00;;
51332;SDS011;37417;48.118;11.734;2023-05-09T04:03:06;2.90;;;1.98;;
51332;SDS011;37417;48.118;11.734;2023-05-09T04:05:52;2.05;;;1.95;;
51332;SDS011;37417;48.118;11.734;2023-05-09T04:08:38;4.50;;;2.65;;
51332;SDS011;37417;48.118;11.734;2023-05-09T04:11:24;3.08;;;2.78;;
51332;SDS011;37417;48.118;11.734;2023-05-09T04:14:09;5.22;;;2.80;;
51332;SDS011;37417;48.118;11.734;2023-05-09T04:16:55;3.47;;;2.15;;
51332;SDS011;37417;48.118;11.734;2023-05-09T04:19:41;3.45;;;3.15;;
51332;SDS011;37417;48.118;11.734;2023-05-09T04:22:26;8.05;;;2.85;;
51332;SDS011;37417;48.118;11.734;2023-05-09T04:25:12;4.20;;;2.55;;
51332;SDS011;37417;48.118;11.734;2023-05-09T04:27:59;5.47;;;3.00;;
51332;SDS011;37417;48.118;11.734;2023-05-09T04:30:44;5.13;;;2.80;;
51332;SDS011;37417;48.118;11.734;2023-05-09T04:33:30;3.97;;;3.38;;
51332;SDS011;37417;48.118;11.734;2023-05-09T04:36:16;4.38;;;3.47;;
51332;SDS011;37417;48.118;11.734;2023-05-09T04:39:01;4.18;;;2.42;;
51332;SDS011;37417;48.118;11.734;2023-05-09T04:41:49;5.53;;;3.40;;
51332;SDS011;37417;48.118;11.734;2023-05-09T04:44:35;3.63;;;2.38;;
51332;SDS011;37417;48.118;11.734;2023-05-09T04:47:20;2.67;;;2.47;;
51332;SDS011;37417;48.118;11.734;2023-05-09T04:50:06;2.63;;;2.15;;
51332;SDS011;37417;48.118;11.734;2023-05-09T04:52:52;3.40;;;2.70;;
51332;SDS011;37417;48.118;11.734;2023-05-09T04:55:38;5.75;;;2.55;;
51332;SDS011;37417;48.118;11.734;2023-05-09T04:58:23;3.78;;;3.42;;
51332;SDS011;37417;48.118;11.734;2023-05-09T05:01:10;5.30;;;3.80;;
51332;SDS011;37417;48.118;11.734;2023-05-09T05:03:56;6.18;;;4.90;;
51332;SDS011;37417;48.118;11.734;2023-05-09T05:06:42;9.85;;;5.65;;
51332;SDS011;37417;48.118;11.734;2023-05-09T05:12:13;9.52;;;6.10;;
51332;SDS011;37417;48.118;11.734;2023-05-09T05:14:58;13.73;;;8.18;;
51332;SDS011;37417;48.118;11.734;2023-05-09T05:17:44;14.20;;;7.45;;
51332;SDS011;37417;48.118;11.734;2023-05-09T05:20:30;5.60;;;4.40;;
51332;SDS011;37417;48.118;11.734;2023-05-09T05:23:16;3.55;;;2.95;;
51332;SDS011;37417;48.118;11.734;2023-05-09T05:26:02;5.68;;;3.47;;
51332;SDS011;37417;48.118;11.734;2023-05-09T05:28:48;6.00;;;3.58;;
51332;SDS011;37417;48.118;11.734;2023-05-09T05:31:33;3.83;;;2.78;;
51332;SDS011;37417;48.118;11.734;2023-05-09T05:34:19;4.38;;;2.97;;
51332;SDS011;37417;48.118;11.734;2023-05-09T05:37:05;4.35;;;2.42;;
51332;SDS011;37417;48.118;11.734;2023-05-09T05:39:50;3.75;;;2.83;;
51332;SDS011;37417;48.118;11.734;2023-05-09T05:42:36;2.83;;;2.47;;
51332;SDS011;37417;48.118;11.734;2023-05-09T05:45:22;4.72;;;3.10;;
51332;SDS011;37417;48.118;11.734;2023-05-09T05:48:07;4.63;;;2.55;;
51332;SDS011;37417;48.118;11.734;2023-05-09T05:50:53;4.05;;;2.78;;
51332;SDS011;37417;48.118;11.734;2023-05-09T05:53:39;3.83;;;2.50;;
51332;SDS011;37417;48.118;11.734;2023-05-09T05:56:25;3.33;;;2.05;;
51332;SDS011;37417;48.118;11.734;2023-05-09T05:59:10;3.20;;;2.00;;
51332;SDS011;37417;48.118;11.734;2023-05-09T06:01:56;2.80;;;2.60;;
51332;SDS011;37417;48.118;11.734;2023-05-09T06:04:42;3.25;;;2.08;;
51332;SDS011;37417;48.118;11.734;2023-05-09T06:07:28;3.90;;;2.40;;
51332;SDS011;37417;48.118;11.734;2023-05-09T06:10:14;4.18;;;2.17;;
51332;SDS011;37417;48.118;11.734;2023-05-09T06:13:02;2.50;;;2.30;;
51332;SDS011;37417;48.118;11.734;2023-05-09T06:15:48;3.08;;;2.08;;
51332;SDS011;37417;48.118;11.734;2023-05-09T06:18:36;2.55;;;1.88;;
51332;SDS011;37417;48.118;11.734;2023-05-09T06:21:24;3.35;;;2.78;;
51332;SDS011;37417;48.118;11.734;2023-05-09T06:24:10;2.83;;;2.50;;
51332;SDS011;37417;48.118;11.734;2023-05-09T06:26:56;3.60;;;2.72;;
51332;SDS011;37417;48.118;11.734;2023-05-09T06:29:42;4.00;;;2.15;;
51332;SDS011;37417;48.118;11.734;2023-05-09T06:32:27;2.50;;;2.10;;
51332;SDS011;37417;48.118;11.734;2023-05-09T06:35:13;4.53;;;2.70;;
51332;SDS011;37417;48.118;11.734;2023-05-09T06:37:59;3.03;;;2.72;;
51332;SDS011;37417;48.118;11.734;2023-05-09T06:40:45;2.25;;;2.03;;
51332;SDS011;37417;48.118;11.734;2023-05-09T06:43:31;2.38;;;2.00;;
51332;SDS011;37417;48.118;11.734;2023-05-09T06:46:16;3.70;;;2.38;;
51332;SDS011;37417;48.118;11.734;2023-05-09T06:49:02;2.63;;;2.03;;
51332;SDS011;37417;48.118;11.734;2023-05-09T06:51:48;2.53;;;2.20;;
51332;SDS011;37417;48.118;11.734;2023-05-09T06:54:34;2.30;;;1.70;;
51332;SDS011;37417;48.118;11.734;2023-05-09T06:57:19;2.10;;;1.95;;
51332;SDS011;37417;48.118;11.734;2023-05-09T07:00:05;4.03;;;2.45;;
51332;SDS011;37417;48.118;11.734;2023-05-09T07:02:53;3.58;;;2.38;;
51332;SDS011;37417;48.118;11.734;2023-05-09T07:05:39;2.72;;;2.53;;
51332;SDS011;37417;48.118;11.734;2023-05-09T07:08:24;3.05;;;2.47;;
51332;SDS011;37417;48.118;11.734;2023-05-09T07:11:11;3.08;;;2.72;;
51332;SDS011;37417;48.118;11.734;2023-05-09T07:13:56;2.80;;;2.50;;
51332;SDS011;37417;48.118;11.734;2023-05-09T07:16:42;3.45;;;3.15;;
51332;SDS011;37417;48.118;11.734;2023-05-09T07:19:28;3.22;;;2.92;;
51332;SDS011;37417;48.118;11.734;2023-05-09T07:22:13;6.15;;;3.30;;
51332;SDS011;37417;48.118;11.734;2023-05-09T07:24:59;3.53;;;3.22;;
51332;SDS011;37417;48.118;11.734;2023-05-09T07:27:45;4.25;;;3.45;;
51332;SDS011;37417;48.118;11.734;2023-05-09T07:30:30;4.38;;;3.50;;
51332;SDS011;37417;48.118;11.734;2023-05-09T07:33:16;4.30;;;2.88;;
51332;SDS011;37417;48.118;11.734;2023-05-09T07:36:02;4.03;;;2.63;;
51332;SDS011;37417;48.118;11.734;2023-05-09T07:38:47;4.50;;;2.90;;
51332;SDS011;37417;48.118;11.734;2023-05-09T07:41:34;5.30;;;3.53;;
51332;SDS011;37417;48.118;11.734;2023-05-09T07:44:20;3.55;;;2.95;;
51332;SDS011;37417;48.118;11.734;2023-05-09T07:47:06;3.08;;;2.67;;
51332;SDS011;37417;48.118;11.734;2023-05-09T07:49:53;3.15;;;2.70;;
51332;SDS011;37417;48.118;11.734;2023-05-09T07:52:39;4.43;;;2.85;;
51332;SDS011;37417;48.118;11.734;2023-05-09T07:55:24;2.05;;;1.85;;
51332;SDS011;37417;48.118;11.734;2023-05-09T07:58:10;2.50;;;1.95;;
51332;SDS011;37417;48.118;11.734;2023-05-09T08:00:56;4.63;;;2.63;;
51332;SDS011;37417;48.118;11.734;2023-05-09T08:03:41;2.28;;;2.00;;
51332;SDS011;37417;48.118;11.734;2023-05-09T08:06:27;2.72;;;2.40;;
51332;SDS011;37417;48.118;11.734;2023-05-09T08:09:13;2.38;;;2.05;;
51332;SDS011;37417;48.118;11.734;2023-05-09T08:11:58;4.65;;;2.88;;
51332;SDS011;37417;48.118;11.734;2023-05-09T08:14:44;2.55;;;2.35;;
51332;SDS011;37417;48.118;11.734;2023-05-09T08:17:30;2.33;;;2.15;;
51332;SDS011;37417;48.118;11.734;2023-05-09T08:20:15;3.17;;;2.72;;
51332;SDS011;37417;48.118;11.734;2023-05-09T08:23:01;2.88;;;2.13;;
51332;SDS011;37417;48.118;11.734;2023-05-09T08:25:48;2.55;;;2.13;;
51332;SDS011;37417;48.118;11.734;2023-05-09T08:28:37;3.05;;;2.13;;
51332;SDS011;37417;48.118;11.734;2023-05-09T08:31:23;2.60;;;2.08;;
51332;SDS011;37417;48.118;11.734;2023-05-09T08:34:08;5.25;;;2.63;;
51332;SDS011;37417;48.118;11.734;2023-05-09T08:36:54;3.90;;;2.55;;
51332;SDS011;37417;48.118;11.734;2023-05-09T08:39:39;3.92;;;2.75;;
51332;SDS011;37417;48.118;11.734;2023-05-09T08:42:25;3.17;;;2.63;;
51332;SDS011;37417;48.118;11.734;2023-05-09T08:45:12;5.30;;;2.88;;
51332;SDS011;37417;48.118;11.734;2023-05-09T08:48:01;4.47;;;2.88;;
51332;SDS011;37417;48.118;11.734;2023-05-09T08:50:47;3.28;;;2.22;;
51332;SDS011;37417;48.118;11.734;2023-05-09T08:53:34;5.50;;;3.00;;
51332;SDS011;37417;48.118;11.734;2023-05-09T08:56:20;3.92;;;2.83;;
51332;SDS011;37417;48.118;11.734;2023-05-09T08:59:05;4.05;;;3.00;;
51332;SDS011;37417;48.118;11.734;2023-05-09T09:01:52;4.55;;;2.65;;
51332;SDS011;37417;48.118;11.734;2023-05-09T09:04:37;3.20;;;2.45;;
51332;SDS011;37417;48.118;11.734;2023-05-09T09:07:24;4.82;;;2.63;;
51332;SDS011;37417;48.118;11.734;2023-05-09T09:10:12;3.00;;;2.55;;
51332;SDS011;37417;48.118;11.734;2023-05-09T09:12:58;4.93;;;2.58;;
51332;SDS011;37417;48.118;11.734;2023-05-09T09:15:45;4.18;;;2.60;;
51332;SDS011;37417;48.118;11.734;2023-05-09T09:18:32;7.50;;;3.25;;
51332;SDS011;37417;48.118;11.734;2023-05-09T09:21:19;3.05;;;2.42;;
51332;SDS011;37417;48.118;11.734;2023-05-09T09:24:05;3.72;;;2.85;;
51332;SDS011;37417;48.118;11.734;2023-05-09T09:26:52;4.07;;;2.53;;
51332;SDS011;37417;48.118;11.734;2023-05-09T09:29:37;4.07;;;2.47;;
51332;SDS011;37417;48.118;11.734;2023-05-09T09:32:31;3.33;;;2.42;;
51332;SDS011;37417;48.118;11.734;2023-05-09T09:35:17;3.30;;;2.63;;
51332;SDS011;37417;48.118;11.734;2023-05-09T09:38:04;3.10;;;2.50;;
51332;SDS011;37417;48.118;11.734;2023-05-09T09:43:36;2.95;;;2.25;;
51332;SDS011;37417;48.118;11.734;2023-05-09T09:46:21;5.25;;;3.15;;
51332;SDS011;37417;48.118;11.734;2023-05-09T09:49:11;4.03;;;2.72;;
51332;SDS011;37417;48.118;11.734;2023-05-09T09:51:57;3.38;;;2.75;;
51332;SDS011;37417;48.118;11.734;2023-05-09T09:54:43;3.75;;;2.72;;
51332;SDS011;37417;48.118;11.734;2023-05-09T09:57:32;4.50;;;2.90;;
51332;SDS011;37417;48.118;11.734;2023-05-09T10:00:24;6.05;;;2.88;;
51332;SDS011;37417;48.118;11.734;2023-05-09T10:03:15;4.45;;;2.83;;
51332;SDS011;37417;48.118;11.734;2023-05-09T10:06:01;4.07;;;3.25;;
51332;SDS011;37417;48.118;11.734;2023-05-09T10:08:47;3.78;;;3.00;;
51332;SDS011;37417;48.118;11.734;2023-05-09T10:11:35;4.22;;;3.30;;
51332;SDS011;37417;48.118;11.734;2023-05-09T10:14:22;4.55;;;3.67;;
51332;SDS011;37417;48.118;11.734;2023-05-09T10:17:10;4.97;;;3.40;;
51332;SDS011;37417;48.118;11.734;2023-05-09T10:20:00;6.68;;;4.18;;
51332;SDS011;37417;48.118;11.734;2023-05-09T10:22:48;4.75;;;3.13;;
51332;SDS011;37417;48.118;11.734;2023-05-09T10:25:38;5.57;;;2.85;;
51332;SDS011;37417;48.118;11.734;2023-05-09T10:28:31;3.85;;;3.20;;
51332;SDS011;37417;48.118;11.734;2023-05-09T10:31:26;6.15;;;3.35;;
51332;SDS011;37417;48.118;11.734;2023-05-09T10:34:13;4.78;;;3.28;;
51332;SDS011;37417;48.118;11.734;2023-05-09T10:36:59;4.55;;;2.85;;
51332;SDS011;37417;48.118;11.734;2023-05-09T10:39:45;3.20;;;2.38;;
51332;SDS011;37417;48.118;11.734;2023-05-09T10:45:22;5.07;;;3.47;;
51332;SDS011;37417;48.118;11.734;2023-05-09T10:48:08;4.15;;;2.47;;
51332;SDS011;37417;48.118;11.734;2023-05-09T10:50:55;4.50;;;2.92;;
51332;SDS011;37417;48.118;11.734;2023-05-09T10:53:43;6.30;;;3.15;;
51332;SDS011;37417;48.118;11.734;2023-05-09T10:56:30;4.72;;;3.70;;
51332;SDS011;37417;48.118;11.734;2023-05-09T10:59:33;3.70;;;2.83;;
51332;SDS011;37417;48.118;11.734;2023-05-09T11:02:26;5.13;;;3.45;;
51332;SDS011;37417;48.118;11.734;2023-05-09T11:05:17;5.28;;;3.75;;
51332;SDS011;37417;48.118;11.734;2023-05-09T11:08:17;3.92;;;3.50;;
51332;SDS011;37417;48.118;11.734;2023-05-09T11:11:11;4.65;;;3.00;;
51332;SDS011;37417;48.118;11.734;2023-05-09T11:14:08;3.97;;;3.17;;
51332;SDS011;37417;48.118;11.734;2023-05-09T11:16:57;3.92;;;3.50;;
51332;SDS011;37417;48.118;11.734;2023-05-09T11:20:07;3.80;;;3.30;;
51332;SDS011;37417;48.118;11.734;2023-05-09T11:22:54;4.97;;;3.00;;
51332;SDS011;37417;48.118;11.734;2023-05-09T11:25:41;6.35;;;3.92;;
51332;SDS011;37417;48.118;11.734;2023-05-09T11:28:31;5.03;;;3.38;;
51332;SDS011;37417;48.118;11.734;2023-05-09T11:31:18;5.40;;;3.40;;
51332;SDS011;37417;48.118;11.734;2023-05-09T11:34:04;5.10;;;3.70;;
51332;SDS011;37417;48.118;11.734;2023-05-09T11:36:50;4.35;;;3.08;;
51332;SDS011;37417;48.118;11.734;2023-05-09T11:40:00;2.70;;;2.17;;
51332;SDS011;37417;48.118;11.734;2023-05-09T11:42:50;4.50;;;3.35;;
51332;SDS011;37417;48.118;11.734;2023-05-09T11:45:40;5.43;;;3.65;;
51332;SDS011;37417;48.118;11.734;2023-05-09T11:48:26;5.55;;;3.95;;
51332;SDS011;37417;48.118;11.734;2023-05-09T11:51:15;5.70;;;3.65;;
51332;SDS011;37417;48.118;11.734;2023-05-09T11:54:03;3.97;;;3.20;;
51332;SDS011;37417;48.118;11.734;2023-05-09T11:56:51;5.07;;;2.90;;
51332;SDS011;37417;48.118;11.734;2023-05-09T11:59:36;3.63;;;2.72;;
51332;SDS011;37417;48.118;11.734;2023-05-09T12:02:22;4.45;;;3.35;;
51332;SDS011;37417;48.118;11.734;2023-05-09T12:05:09;3.65;;;3.10;;
51332;SDS011;37417;48.118;11.734;2023-05-09T12:08:00;4.95;;;3.58;;
51332;SDS011;37417;48.118;11.734;2023-05-09T12:10:47;4.45;;;3.25;;
51332;SDS011;37417;48.118;11.734;2023-05-09T12:13:33;3.50;;;3.03;;
51332;SDS011;37417;48.118;11.734;2023-05-09T12:16:19;4.40;;;3.08;;
51332;SDS011;37417;48.118;11.734;2023-05-09T12:19:06;4.13;;;2.72;;
51332;SDS011;37417;48.118;11.734;2023-05-09T12:22:01;4.68;;;3.20;;
51332;SDS011;37417;48.118;11.734;2023-05-09T12:24:48;5.28;;;4.00;;
51332;SDS011;37417;48.118;11.734;2023-05-09T12:27:34;4.07;;;3.28;;
51332;SDS011;37417;48.118;11.734;2023-05-09T12:30:21;4.03;;;2.45;;
51332;SDS011;37417;48.118;11.734;2023-05-09T12:33:07;2.85;;;2.55;;
51332;SDS011;37417;48.118;11.734;2023-05-09T12:36:03;6.35;;;2.83;;
51332;SDS011;37417;48.118;11.734;2023-05-09T12:38:55;3.85;;;3.10;;
51332;SDS011;37417;48.118;11.734;2023-05-09T12:41:41;3.15;;;2.38;;
51332;SDS011;37417;48.118;11.734;2023-05-09T12:44:29;5.07;;;3.47;;
51332;SDS011;37417;48.118;11.734;2023-05-09T12:47:14;4.38;;;2.83;;
51332;SDS011;37417;48.118;11.734;2023-05-09T12:50:01;2.53;;;2.33;;
51332;SDS011;37417;48.118;11.734;2023-05-09T12:52:50;3.47;;;2.63;;
51332;SDS011;37417;48.118;11.734;2023-05-09T12:55:39;6.72;;;2.72;;
51332;SDS011;37417;48.118;11.734;2023-05-09T12:58:29;5.03;;;2.88;;
51332;SDS011;37417;48.118;11.734;2023-05-09T13:01:18;3.85;;;2.78;;
51332;SDS011;37417;48.118;11.734;2023-05-09T13:04:05;3.40;;;2.42;;
51332;SDS011;37417;48.118;11.734;2023-05-09T13:06:52;3.83;;;2.88;;
51332;SDS011;37417;48.118;11.734;2023-05-09T13:09:52;3.85;;;2.75;;
51332;SDS011;37417;48.118;11.734;2023-05-09T13:12:40;3.10;;;2.28;;
51332;SDS011;37417;48.118;11.734;2023-05-09T13:15:29;5.32;;;2.75;;
51332;SDS011;37417;48.118;11.734;2023-05-09T13:18:15;3.92;;;2.88;;
51332;SDS011;37417;48.118;11.734;2023-05-09T13:21:00;3.78;;;2.33;;
51332;SDS011;37417;48.118;11.734;2023-05-09T13:23:46;3.22;;;2.67;;
51332;SDS011;37417;48.118;11.734;2023-05-09T13:26:34;1.98;;;1.75;;
51332;SDS011;37417;48.118;11.734;2023-05-09T13:29:20;4.05;;;1.90;;
51332;SDS011;37417;48.118;11.734;2023-05-09T13:32:05;3.75;;;2.03;;
51332;SDS011;37417;48.118;11.734;2023-05-09T13:34:51;2.95;;;2.25;;
51332;SDS011;37417;48.118;11.734;2023-05-09T13:37:37;3.42;;;2.50;;
51332;SDS011;37417;48.118;11.734;2023-05-09T13:40:23;2.85;;;2.22;;
51332;SDS011;37417;48.118;11.734;2023-05-09T13:43:08;3.08;;;2.40;;
51332;SDS011;37417;48.118;11.734;2023-05-09T13:45:54;2.97;;;2.35;;
51332;SDS011;37417;48.118;11.734;2023-05-09T13:48:40;2.60;;;2.15;;
51332;SDS011;37417;48.118;11.734;2023-05-09T13:51:26;3.28;;;2.00;;
51332;SDS011;37417;48.118;11.734;2023-05-09T13:54:13;4.60;;;2.50;;
51332;SDS011;37417;48.118;11.734;2023-05-09T13:57:03;3.63;;;1.90;;
51332;SDS011;37417;48.118;11.734;2023-05-09T13:59:49;6.15;;;2.30;;
51332;SDS011;37417;48.118;11.734;2023-05-09T14:02:35;3.13;;;2.33;;
51332;SDS011;37417;48.118;11.734;2023-05-09T14:05:21;3.13;;;2.05;;
51332;SDS011;37417;48.118;11.734;2023-05-09T14:08:07;2.78;;;2.28;;
51332;SDS011;37417;48.118;11.734;2023-05-09T14:10:52;2.25;;;1.70;;
51332;SDS011;37417;48.118;11.734;2023-05-09T14:13:38;3.13;;;2.10;;
51332;SDS011;37417;48.118;11.734;2023-05-09T14:16:24;3.05;;;2.72;;
51332;SDS011;37417;48.118;11.734;2023-05-09T14:19:10;3.13;;;2.63;;
51332;SDS011;37417;48.118;11.734;2023-05-09T14:21:56;2.67;;;2.08;;
51332;SDS011;37417;48.118;11.734;2023-05-09T14:24:42;1.80;;;1.70;;
51332;SDS011;37417;48.118;11.734;2023-05-09T14:27:27;5.65;;;2.15;;
51332;SDS011;37417;48.118;11.734;2023-05-09T14:30:13;3.67;;;2.20;;
51332;SDS011;37417;48.118;11.734;2023-05-09T14:32:59;2.08;;;1.88;;
51332;SDS011;37417;48.118;11.734;2023-05-09T14:35:45;3.10;;;2.28;;
51332;SDS011;37417;48.118;11.734;2023-05-09T14:38:31;2.75;;;1.65;;
51332;SDS011;37417;48.118;11.734;2023-05-09T14:41:17;1.77;;;1.60;;
51332;SDS011;37417;48.118;11.734;2023-05-09T14:44:03;2.33;;;2.10;;
51332;SDS011;37417;48.118;11.734;2023-05-09T14:46:49;4.72;;;2.55;;
51332;SDS011;37417;48.118;11.734;2023-05-09T14:49:35;2.67;;;1.90;;
51332;SDS011;37417;48.118;11.734;2023-05-09T14:52:21;3.47;;;1.95;;
51332;SDS011;37417;48.118;11.734;2023-05-09T14:55:07;2.00;;;1.45;;
51332;SDS011;37417;48.118;11.734;2023-05-09T14:57:53;3.67;;;2.63;;
51332;SDS011;37417;48.118;11.734;2023-05-09T15:00:38;2.88;;;2.05;;
51332;SDS011;37417;48.118;11.734;2023-05-09T15:03:24;2.92;;;2.05;;
51332;SDS011;37417;48.118;11.734;2023-05-09T15:06:10;2.85;;;1.95;;
51332;SDS011;37417;48.118;11.734;2023-05-09T15:08:56;1.75;;;1.63;;
51332;SDS011;37417;48.118;11.734;2023-05-09T15:11:41;1.45;;;1.20;;
51332;SDS011;37417;48.118;11.734;2023-05-09T15:14:29;1.42;;;1.00;;
51332;SDS011;37417;48.118;11.734;2023-05-09T15:17:15;4.07;;;2.58;;
51332;SDS011;37417;48.118;11.734;2023-05-09T15:20:01;2.95;;;2.00;;
51332;SDS011;37417;48.118;11.734;2023-05-09T15:22:48;4.43;;;1.90;;
51332;SDS011;37417;48.118;11.734;2023-05-09T15:25:34;1.50;;;1.23;;
51332;SDS011;37417;48.118;11.734;2023-05-09T15:28:20;2.33;;;1.48;;
51332;SDS011;37417;48.118;11.734;2023-05-09T15:31:06;2.83;;;1.25;;
51332;SDS011;37417;48.118;11.734;2023-05-09T15:33:52;3.10;;;1.67;;
51332;SDS011;37417;48.118;11.734;2023-05-09T15:36:38;1.48;;;1.38;;
51332;SDS011;37417;48.118;11.734;2023-05-09T15:39:23;2.15;;;1.65;;
51332;SDS011;37417;48.118;11.734;2023-05-09T15:42:10;1.52;;;1.38;;
51332;SDS011;37417;48.118;11.734;2023-05-09T15:44:59;4.00;;;1.52;;
51332;SDS011;37417;48.118;11.734;2023-05-09T15:47:45;8.10;;;1.90;;
51332;SDS011;37417;48.118;11.734;2023-05-09T15:50:31;2.08;;;1.45;;
51332;SDS011;37417;48.118;11.734;2023-05-09T15:53:17;7.35;;;1.95;;
51332;SDS011;37417;48.118;11.734;2023-05-09T15:56:02;3.00;;;1.65;;
51332;SDS011;37417;48.118;11.734;2023-05-09T15:58:48;3.08;;;2.03;;
51332;SDS011;37417;48.118;11.734;2023-05-09T16:01:34;2.47;;;1.80;;
51332;SDS011;37417;48.118;11.734;2023-05-09T16:04:20;2.75;;;1.55;;
51332;SDS011;37417;48.118;11.734;2023-05-09T16:07:06;1.65;;;1.55;;
51332;SDS011;37417;48.118;11.734;2023-05-09T16:09:53;2.45;;;1.70;;
51332;SDS011;37417;48.118;11.734;2023-05-09T16:12:38;3.60;;;1.38;;
51332;SDS011;37417;48.118;11.734;2023-05-09T16:15:24;1.65;;;1.55;;
51332;SDS011;37417;48.118;11.734;2023-05-09T16:18:10;2.60;;;1.88;;
51332;SDS011;37417;48.118;11.734;2023-05-09T16:20:55;1.77;;;1.60;;
51332;SDS011;37417;48.118;11.734;2023-05-09T16:23:41;1.83;;;1.65;;
51332;SDS011;37417;48.118;11.734;2023-05-09T16:26:27;2.30;;;2.10;;
51332;SDS011;37417;48.118;11.734;2023-05-09T16:29:13;2.42;;;1.90;;
51332;SDS011;37417;48.118;11.734;2023-05-09T16:31:58;3.13;;;2.67;;
51332;SDS011;37417;48.118;11.734;2023-05-09T16:34:44;4.95;;;2.50;;
51332;SDS011;37417;48.118;11.734;2023-05-09T16:37:30;2.30;;;1.50;;
51332;SDS011;37417;48.118;11.734;2023-05-09T16:40:16;2.03;;;1.38;;
51332;SDS011;37417;48.118;11.734;2023-05-09T16:43:03;2.90;;;2.00;;
51332;SDS011;37417;48.118;11.734;2023-05-09T16:45:48;5.18;;;2.30;;